Terminal Aerodrome Forecast
Issued by NWS Cleveland, OH

Home | Current Version | Previous Version | Graphics & Text | Print | Product List | Glossary On
Versions: 1 2 3 4 5 6 7 8 9 10 11 12 13 14 15 16 17 18 19 20 21 22
469
FTUS41 KCLE 152156 AAB
TAFCAK
TAF AMD
KCAK 152156Z 1522/1618 23007KT 5SM -RA BR VCTS SCT015CB OVC070
      WS020/24045KT
      TEMPO 1523/1603 3SM -SHRA BR BKN015 OVC040
     FM160300 26008KT 3SM RA BR BKN010 OVC035 WS020/24045KT
     FM160600 33007KT 2SM -RA BR OVC007
     FM161000 33009KT 5SM BR OVC007
     FM161500 33013KT P6SM OVC007
     FM161600 32013KT P6SM OVC010=

USA.gov is the U.S. government's official web portal to all federal, state and local government web resources and services.